createdAt,value
2023-03-29T00:00:19.753Z,53.18
2023-03-29T00:01:35.765Z,53.27
2023-03-29T00:02:39.816Z,53.47
2023-03-29T00:03:46.040Z,53.61
2023-03-29T00:04:48.894Z,54.06
2023-03-29T00:05:57.749Z,53.96
2023-03-29T00:07:04.612Z,54.35
2023-03-29T00:08:08.966Z,54.50
2023-03-29T00:09:11.672Z,54.72
2023-03-29T00:10:14.575Z,54.90
2023-03-29T00:11:18.031Z,55.50
2023-03-29T00:12:20.721Z,55.52
2023-03-29T00:13:23.596Z,55.64
2023-03-29T00:14:27.010Z,55.78
2023-03-29T00:15:29.784Z,55.91
2023-03-29T00:16:32.601Z,56.02
2023-03-29T00:17:35.486Z,55.99
2023-03-29T00:18:38.339Z,56.19
2023-03-29T00:19:44.397Z,56.58
2023-03-29T00:20:47.164Z,56.50
2023-03-29T00:21:50.140Z,56.53
2023-03-29T00:22:52.948Z,56.63
2023-03-29T00:23:57.224Z,56.91
2023-03-29T00:24:59.948Z,56.96
2023-03-29T00:26:03.841Z,57.23
2023-03-29T00:27:07.916Z,57.29
2023-03-29T00:28:10.682Z,57.67
2023-03-29T00:29:13.842Z,57.78
2023-03-29T00:30:16.979Z,57.96
2023-03-29T00:31:19.760Z,58.06
2023-03-29T00:32:22.795Z,58.18
2023-03-29T00:33:25.693Z,58.37
2023-03-29T00:34:31.949Z,58.54
2023-03-29T00:35:35.178Z,58.83
2023-03-29T00:36:40.662Z,58.97
2023-03-29T00:37:43.539Z,59.23
2023-03-29T00:38:46.371Z,59.80
2023-03-29T00:39:49.294Z,60.71
2023-03-29T00:40:52.339Z,60.61
2023-03-29T00:41:55.403Z,60.63
2023-03-29T00:42:58.365Z,60.88
2023-03-29T00:44:05.871Z,61.00
2023-03-29T00:45:30.706Z,60.99
2023-03-29T00:46:35.298Z,61.84
2023-03-29T00:47:50.885Z,61.88
2023-03-29T00:48:57.178Z,62.17
2023-03-29T00:50:08.877Z,62.35
2023-03-29T00:51:14.612Z,62.40
2023-03-29T00:52:21.551Z,62.23
2023-03-29T00:53:34.008Z,62.19
2023-03-29T00:54:38.200Z,62.40
2023-03-29T00:55:44.053Z,62.89
2023-03-29T00:56:51.388Z,63.16
2023-03-29T00:57:56.493Z,63.26
2023-03-29T00:59:16.304Z,63.36
2023-03-29T01:00:23.122Z,63.70
2023-03-29T01:01:34.470Z,63.64
2023-03-29T01:02:40.293Z,63.68
2023-03-29T01:03:54.647Z,63.42
2023-03-29T01:05:07.314Z,64.07
2023-03-29T01:06:12.431Z,64.08
2023-03-29T01:07:23.825Z,64.29
2023-03-29T01:08:32.889Z,64.12
2023-03-29T01:09:39.200Z,64.36
2023-03-29T01:10:47.974Z,65.01
2023-03-29T01:11:56.522Z,65.37
2023-03-29T01:13:06.809Z,65.04
2023-03-29T01:14:38.635Z,65.33
2023-03-29T01:15:45.302Z,65.29
2023-03-29T01:16:48.313Z,65.53
2023-03-29T01:17:53.926Z,65.79
2023-03-29T01:19:00.542Z,65.57
2023-03-29T01:20:22.499Z,65.47
2023-03-29T01:21:40.076Z,65.70
2023-03-29T01:23:07.595Z,65.93
2023-03-29T01:24:38.324Z,66.61
2023-03-29T01:25:48.367Z,65.79
2023-03-29T01:26:54.241Z,65.39
2023-03-29T01:28:04.042Z,65.34
2023-03-29T01:29:13.176Z,65.22
2023-03-29T01:30:31.054Z,64.95
2023-03-29T01:31:40.308Z,64.65
2023-03-29T01:33:07.850Z,64.18
2023-03-29T01:34:25.893Z,63.95
2023-03-29T01:35:34.482Z,64.00
2023-03-29T01:36:55.144Z,63.46
2023-03-29T01:38:13.693Z,62.98
2023-03-29T01:39:19.376Z,63.26
2023-03-29T01:40:23.076Z,63.42
2023-03-29T01:41:51.524Z,63.58
2023-03-29T01:43:15.080Z,63.57
2023-03-29T01:44:25.219Z,63.75
2023-03-29T01:45:31.230Z,63.93
2023-03-29T01:46:39.925Z,63.75
2023-03-29T01:48:02.809Z,64.00
2023-03-29T01:49:23.273Z,64.09
2023-03-29T01:50:43.151Z,64.11
2023-03-29T01:52:01.070Z,64.26
2023-03-29T01:53:25.060Z,64.36
2023-03-29T01:55:00.676Z,64.53
2023-03-29T01:56:23.128Z,64.67
2023-03-29T01:57:26.985Z,64.59
2023-03-29T01:58:34.631Z,64.58
2023-03-29T01:59:42.377Z,64.62
2023-03-29T02:00:46.196Z,64.80
2023-03-29T02:01:54.712Z,65.02
2023-03-29T02:03:03.532Z,65.05
2023-03-29T02:04:13.544Z,65.34
2023-03-29T02:05:18.092Z,65.62
2023-03-29T02:06:25.538Z,65.77
2023-03-29T02:07:37.656Z,66.02
2023-03-29T02:08:42.457Z,66.23
2023-03-29T02:09:47.319Z,66.42
2023-03-29T02:10:52.107Z,66.40
2023-03-29T02:12:01.041Z,66.40
2023-03-29T02:13:05.738Z,66.59
2023-03-29T02:14:10.437Z,66.68
2023-03-29T02:15:16.382Z,66.86
2023-03-29T02:16:20.511Z,66.61
2023-03-29T02:17:26.206Z,66.77
2023-03-29T02:18:30.511Z,66.87
2023-03-29T02:19:34.645Z,67.04
2023-03-29T02:20:41.159Z,67.24
2023-03-29T02:22:06.903Z,67.44
2023-03-29T02:23:14.603Z,67.63
2023-03-29T02:24:20.465Z,67.59
2023-03-29T02:25:24.832Z,67.60
2023-03-29T02:26:29.512Z,68.72
2023-03-29T02:27:32.391Z,68.47
2023-03-29T02:28:36.480Z,68.46
2023-03-29T02:29:39.584Z,68.46
2023-03-29T02:30:57.981Z,68.38
2023-03-29T02:32:11.381Z,68.24
2023-03-29T02:33:19.528Z,68.16
2023-03-29T02:34:39.144Z,67.94
2023-03-29T02:36:17.938Z,67.88
2023-03-29T02:37:22.907Z,68.05
2023-03-29T02:38:28.053Z,68.17
2023-03-29T02:39:34.921Z,68.18
2023-03-29T02:40:42.200Z,68.35
2023-03-29T02:41:49.866Z,68.15
2023-03-29T02:42:55.945Z,68.27
2023-03-29T02:44:02.453Z,68.25
2023-03-29T02:45:08.055Z,68.23
2023-03-29T02:46:12.858Z,68.00
2023-03-29T02:47:38.480Z,67.90
2023-03-29T02:48:42.522Z,67.71
2023-03-29T02:49:45.888Z,67.53
2023-03-29T02:50:54.259Z,67.31
2023-03-29T02:52:05.353Z,67.52
2023-03-29T02:53:17.624Z,67.59
2023-03-29T02:54:26.353Z,67.75
2023-03-29T02:55:35.022Z,67.99
2023-03-29T02:56:48.018Z,68.14
2023-03-29T02:57:50.908Z,68.33
2023-03-29T02:58:53.915Z,68.53
2023-03-29T02:59:59.117Z,68.74
2023-03-29T03:01:06.084Z,68.78
2023-03-29T03:02:09.036Z,68.74
2023-03-29T03:03:13.374Z,68.90
2023-03-29T03:04:18.784Z,69.09
2023-03-29T03:05:21.879Z,68.81
2023-03-29T03:06:25.387Z,68.75
2023-03-29T03:07:28.929Z,68.97
2023-03-29T03:08:32.444Z,69.18
2023-03-29T03:09:35.800Z,69.14
2023-03-29T03:10:39.262Z,69.04
2023-03-29T03:11:42.529Z,68.90
2023-03-29T03:12:45.515Z,68.92
2023-03-29T03:13:48.404Z,68.78
2023-03-29T03:14:51.267Z,68.93
2023-03-29T03:15:54.382Z,68.77
2023-03-29T03:16:58.101Z,68.41
2023-03-29T03:18:00.999Z,68.35
2023-03-29T03:19:04.365Z,68.51
2023-03-29T03:20:14.841Z,68.26
2023-03-29T03:21:19.197Z,68.28
2023-03-29T03:22:23.024Z,68.26
2023-03-29T03:23:25.944Z,68.35
2023-03-29T03:24:28.981Z,68.67
2023-03-29T03:25:32.614Z,68.54
2023-03-29T03:26:36.305Z,68.20
2023-03-29T03:27:40.050Z,67.74
2023-03-29T03:28:43.435Z,67.56
2023-03-29T03:29:46.520Z,67.97
2023-03-29T03:30:50.117Z,68.06
2023-03-29T03:31:54.032Z,67.59
2023-03-29T03:32:57.670Z,67.63
2023-03-29T03:34:00.567Z,67.81
2023-03-29T03:35:05.873Z,68.01
2023-03-29T03:36:10.482Z,67.74
2023-03-29T03:37:13.591Z,67.51
2023-03-29T03:38:16.874Z,67.67
2023-03-29T03:39:19.901Z,67.82
2023-03-29T03:40:22.909Z,67.82
2023-03-29T03:41:26.599Z,67.96
2023-03-29T03:42:30.167Z,68.25
2023-03-29T03:43:34.096Z,68.43
2023-03-29T03:44:38.210Z,68.30
2023-03-29T03:45:43.274Z,68.54
2023-03-29T03:46:46.569Z,68.91
2023-03-29T03:47:51.429Z,68.82
2023-03-29T03:48:54.518Z,69.48
2023-03-29T03:49:57.706Z,69.47
2023-03-29T03:51:00.943Z,69.29
2023-03-29T03:52:04.353Z,69.35
2023-03-29T03:53:07.554Z,69.42
2023-03-29T03:54:10.511Z,69.08
2023-03-29T03:55:14.583Z,68.83
2023-03-29T03:56:18.006Z,69.08
2023-03-29T03:57:21.096Z,69.00
2023-03-29T03:58:24.640Z,68.98
2023-03-29T03:59:27.648Z,69.04
2023-03-29T04:00:30.688Z,68.83
2023-03-29T04:01:35.729Z,68.74
2023-03-29T04:02:39.071Z,68.59
2023-03-29T04:03:42.146Z,68.42
2023-03-29T04:04:45.295Z,68.60
2023-03-29T04:05:48.939Z,68.16
2023-03-29T04:06:51.966Z,67.75
2023-03-29T04:07:56.558Z,67.52
2023-03-29T04:08:59.991Z,68.00
2023-03-29T04:10:03.405Z,68.44
2023-03-29T04:11:07.903Z,68.49
2023-03-29T04:12:12.132Z,68.29
2023-03-29T04:13:15.329Z,68.33
2023-03-29T04:14:18.560Z,68.41
2023-03-29T04:15:21.916Z,69.12
2023-03-29T04:16:25.197Z,69.74
2023-03-29T04:17:28.331Z,69.81
2023-03-29T04:18:31.698Z,69.89
2023-03-29T04:19:35.005Z,70.12
2023-03-29T04:20:39.358Z,70.14
2023-03-29T04:21:43.330Z,69.94
2023-03-29T04:22:46.336Z,70.25
2023-03-29T04:23:49.346Z,70.54
2023-03-29T04:24:52.551Z,70.50
2023-03-29T04:25:57.004Z,69.48
2023-03-29T04:27:00.203Z,69.19
2023-03-29T04:28:03.211Z,69.49
2023-03-29T04:29:06.182Z,68.60
2023-03-29T04:30:10.138Z,68.70
2023-03-29T04:31:15.348Z,68.87
2023-03-29T04:32:18.511Z,68.81
2023-03-29T04:33:21.618Z,69.23
2023-03-29T04:34:30.212Z,68.74
2023-03-29T04:35:33.686Z,67.69
2023-03-29T04:36:36.889Z,67.05
2023-03-29T04:37:40.693Z,67.29
2023-03-29T04:38:47.370Z,67.50
2023-03-29T04:39:52.850Z,66.05
2023-03-29T04:40:56.250Z,65.13
2023-03-29T04:41:59.088Z,64.49
2023-03-29T04:43:02.597Z,64.23
2023-03-29T04:44:07.324Z,64.72
2023-03-29T04:45:11.102Z,64.66
2023-03-29T04:46:15.253Z,64.92
2023-03-29T04:47:18.707Z,64.94
2023-03-29T04:48:22.604Z,64.91
2023-03-29T04:49:26.180Z,65.29
2023-03-29T04:50:29.192Z,65.66
2023-03-29T04:51:33.573Z,66.03
2023-03-29T04:52:36.473Z,66.07
2023-03-29T04:53:39.394Z,66.31
2023-03-29T04:54:42.451Z,66.61
2023-03-29T04:55:47.404Z,66.87
2023-03-29T04:56:52.636Z,66.83
2023-03-29T04:57:55.891Z,67.05
2023-03-29T04:58:59.004Z,67.10
2023-03-29T05:00:01.956Z,67.09
2023-03-29T05:01:06.109Z,67.14
2023-03-29T05:02:09.240Z,67.36
2023-03-29T05:03:14.804Z,67.55
2023-03-29T05:04:18.689Z,67.54
2023-03-29T05:05:21.651Z,68.06
2023-03-29T05:06:25.049Z,68.19
2023-03-29T05:07:28.134Z,68.67
2023-03-29T05:08:31.080Z,68.46
2023-03-29T05:09:35.919Z,68.30
2023-03-29T05:10:43.539Z,68.53
2023-03-29T05:11:46.488Z,68.88
2023-03-29T05:12:54.408Z,68.21
2023-03-29T05:14:02.606Z,68.96
2023-03-29T05:15:06.369Z,68.61
2023-03-29T05:16:11.577Z,68.72
2023-03-29T05:17:14.665Z,68.42
2023-03-29T05:18:18.156Z,68.33
2023-03-29T05:19:23.834Z,68.00
2023-03-29T05:20:26.988Z,68.02
2023-03-29T05:21:30.348Z,68.77
2023-03-29T05:22:33.219Z,69.09
2023-03-29T05:23:36.419Z,69.45
2023-03-29T05:24:39.487Z,69.40
2023-03-29T05:25:44.199Z,69.31
2023-03-29T05:26:48.054Z,69.75
2023-03-29T05:27:50.920Z,69.79
2023-03-29T05:28:54.447Z,69.92
2023-03-29T05:29:57.751Z,69.77
2023-03-29T05:31:02.907Z,69.24
2023-03-29T05:32:07.513Z,67.75
2023-03-29T05:33:11.058Z,67.37
2023-03-29T05:34:14.131Z,67.15
2023-03-29T05:35:17.256Z,66.96
2023-03-29T05:36:20.247Z,66.67
2023-03-29T05:37:23.630Z,66.74
2023-03-29T05:38:26.720Z,67.52
2023-03-29T05:39:30.064Z,67.67
2023-03-29T05:40:33.906Z,67.61
2023-03-29T05:41:37.163Z,67.40
2023-03-29T05:42:40.345Z,66.99
2023-03-29T05:43:43.368Z,67.32
2023-03-29T05:44:46.401Z,66.87
2023-03-29T05:45:49.592Z,66.82
2023-03-29T05:46:52.930Z,66.20
2023-03-29T05:47:57.809Z,66.32
2023-03-29T05:49:01.670Z,66.54
2023-03-29T05:50:05.413Z,66.45
2023-03-29T05:51:08.651Z,66.17
2023-03-29T05:52:11.972Z,66.03
2023-03-29T05:53:15.604Z,66.20
2023-03-29T05:54:18.514Z,66.59
2023-03-29T05:55:21.481Z,66.31
2023-03-29T05:56:25.099Z,65.92
2023-03-29T05:57:28.434Z,65.84
2023-03-29T05:58:31.486Z,65.70
2023-03-29T05:59:34.440Z,66.03
2023-03-29T06:00:38.836Z,65.56
2023-03-29T06:01:42.142Z,65.24
2023-03-29T06:02:45.154Z,65.27
2023-03-29T06:03:48.391Z,65.29
2023-03-29T06:04:52.101Z,65.39
2023-03-29T06:06:05.229Z,64.97
2023-03-29T06:07:08.731Z,64.66
2023-03-29T06:08:12.280Z,63.98
2023-03-29T06:09:15.878Z,63.77
2023-03-29T06:10:20.743Z,63.18
2023-03-29T06:11:24.669Z,62.85
2023-03-29T06:12:28.341Z,63.06
2023-03-29T06:13:33.763Z,63.19
2023-03-29T06:14:37.523Z,63.37
2023-03-29T06:15:40.654Z,63.32
2023-03-29T06:16:43.600Z,63.22
2023-03-29T06:17:47.540Z,62.72
2023-03-29T06:18:50.893Z,62.03
2023-03-29T06:19:53.912Z,61.98
2023-03-29T06:20:56.843Z,61.93
2023-03-29T06:22:00.039Z,61.93
2023-03-29T06:23:03.032Z,61.77
2023-03-29T06:24:07.096Z,60.75
2023-03-29T06:25:14.513Z,61.09
2023-03-29T06:26:18.147Z,61.37
2023-03-29T06:27:21.402Z,61.32
2023-03-29T06:28:25.073Z,61.53
2023-03-29T06:29:28.051Z,61.39
2023-03-29T06:30:31.027Z,60.54
2023-03-29T06:31:36.635Z,60.54
2023-03-29T06:32:40.005Z,60.82
2023-03-29T06:33:43.853Z,60.29
2023-03-29T06:34:46.828Z,60.33
2023-03-29T06:35:50.368Z,60.65
2023-03-29T06:36:55.183Z,60.98
2023-03-29T06:37:58.444Z,61.14
2023-03-29T06:39:01.424Z,61.18
2023-03-29T06:40:07.657Z,61.12
2023-03-29T06:41:13.848Z,60.71
2023-03-29T06:42:21.650Z,60.63
2023-03-29T06:43:24.987Z,60.62
2023-03-29T06:44:28.820Z,60.72
2023-03-29T06:45:34.723Z,59.84
2023-03-29T06:46:37.881Z,59.21
2023-03-29T06:47:41.578Z,59.10
2023-03-29T06:48:45.327Z,58.79
2023-03-29T06:49:48.490Z,58.39
2023-03-29T06:50:52.544Z,57.68
2023-03-29T06:51:57.376Z,57.17
2023-03-29T06:53:00.787Z,56.34
2023-03-29T06:54:04.654Z,55.72
2023-03-29T06:55:08.170Z,56.30
2023-03-29T06:56:11.454Z,56.28
2023-03-29T06:57:14.734Z,56.56
2023-03-29T06:58:17.833Z,56.62
2023-03-29T06:59:21.015Z,56.44
2023-03-29T07:00:30.151Z,56.28
2023-03-29T07:01:34.999Z,56.40
2023-03-29T07:02:38.010Z,56.81
2023-03-29T07:03:41.544Z,56.68
2023-03-29T07:04:44.792Z,56.37
2023-03-29T07:05:47.981Z,55.73
2023-03-29T07:07:01.800Z,55.60
2023-03-29T07:08:07.838Z,56.02
2023-03-29T07:09:13.401Z,56.38
2023-03-29T07:10:16.860Z,56.47
2023-03-29T07:11:20.635Z,55.62
2023-03-29T07:12:24.154Z,54.84
2023-03-29T07:13:27.837Z,55.63
2023-03-29T07:14:31.121Z,56.00
2023-03-29T07:15:34.162Z,55.83
2023-03-29T07:16:37.970Z,54.72
2023-03-29T07:17:41.069Z,54.54
2023-03-29T07:18:45.012Z,54.93
2023-03-29T07:19:49.279Z,55.27
2023-03-29T07:20:52.691Z,55.07
2023-03-29T07:21:56.411Z,54.95
2023-03-29T07:23:00.497Z,54.02
2023-03-29T07:24:05.090Z,54.71
2023-03-29T07:25:12.484Z,54.48
2023-03-29T07:26:28.768Z,53.95
2023-03-29T07:27:32.858Z,54.48
2023-03-29T07:28:37.749Z,54.34
2023-03-29T07:29:40.658Z,53.56
2023-03-29T07:30:43.739Z,54.54
2023-03-29T07:31:46.697Z,54.57
2023-03-29T07:32:51.611Z,54.11
2023-03-29T07:33:54.599Z,54.26
2023-03-29T07:34:57.629Z,54.30
2023-03-29T07:36:02.265Z,54.15
2023-03-29T07:37:06.762Z,53.54
2023-03-29T07:38:10.658Z,53.66
2023-03-29T07:39:14.032Z,54.23
2023-03-29T07:40:20.034Z,54.32
2023-03-29T07:41:23.229Z,54.52
2023-03-29T07:42:26.449Z,54.64
2023-03-29T07:43:29.517Z,54.88
2023-03-29T07:44:33.909Z,54.77
2023-03-29T07:45:37.133Z,54.62
2023-03-29T07:46:40.272Z,53.90
2023-03-29T07:47:44.985Z,53.98
2023-03-29T07:48:48.180Z,53.47
2023-03-29T07:49:51.564Z,53.28
2023-03-29T07:50:54.545Z,51.05
2023-03-29T07:51:58.039Z,51.15
2023-03-29T07:53:01.624Z,51.50
2023-03-29T07:54:06.657Z,52.07
2023-03-29T07:55:11.896Z,51.68
2023-03-29T07:56:15.035Z,51.05
2023-03-29T07:57:18.170Z,51.13
2023-03-29T07:58:22.053Z,49.56
2023-03-29T07:59:25.159Z,49.06
2023-03-29T08:00:28.302Z,48.95
2023-03-29T08:01:31.210Z,49.40
2023-03-29T08:02:34.690Z,45.90
2023-03-29T08:03:37.941Z,46.83
2023-03-29T08:04:41.369Z,47.67
2023-03-29T08:05:44.277Z,46.84
2023-03-29T08:06:47.339Z,45.88
2023-03-29T08:07:50.824Z,46.26
2023-03-29T08:08:53.815Z,46.38
2023-03-29T08:09:58.233Z,45.25
2023-03-29T08:11:01.417Z,45.20
2023-03-29T08:12:04.894Z,46.42
2023-03-29T08:13:09.374Z,46.48
2023-03-29T08:14:12.286Z,47.21
2023-03-29T08:15:16.608Z,48.00
2023-03-29T08:16:19.977Z,47.26
2023-03-29T08:17:23.030Z,45.85
2023-03-29T08:18:25.915Z,45.64
2023-03-29T08:19:29.278Z,45.87
2023-03-29T08:20:32.969Z,45.77
2023-03-29T08:21:35.956Z,45.49
2023-03-29T08:22:39.511Z,46.53
2023-03-29T08:23:42.313Z,47.00
2023-03-29T08:24:45.219Z,47.16
2023-03-29T08:25:48.135Z,45.94
2023-03-29T08:26:51.093Z,46.22
2023-03-29T08:27:54.443Z,45.37
2023-03-29T08:28:57.857Z,44.25
2023-03-29T08:30:00.943Z,45.37
2023-03-29T08:31:04.276Z,44.34
2023-03-29T08:32:07.463Z,44.66
2023-03-29T08:33:10.354Z,42.79
2023-03-29T08:34:14.005Z,42.66
2023-03-29T08:35:17.109Z,41.82
2023-03-29T08:36:20.364Z,42.61
2023-03-29T08:37:26.087Z,42.47
2023-03-29T08:38:29.240Z,42.40
2023-03-29T08:39:33.150Z,41.28
2023-03-29T08:40:36.966Z,41.19
2023-03-29T08:41:58.506Z,39.61
2023-03-29T08:43:16.554Z,39.56
2023-03-29T08:44:48.411Z,41.07
2023-03-29T08:46:11.908Z,42.60
2023-03-29T08:47:21.207Z,42.16
2023-03-29T08:48:31.195Z,42.90
2023-03-29T08:49:38.232Z,40.29
2023-03-29T08:50:53.203Z,40.74
2023-03-29T08:52:03.929Z,41.65
2023-03-29T08:53:28.378Z,41.63
2023-03-29T08:54:59.753Z,42.18
2023-03-29T08:56:08.969Z,40.68
2023-03-29T08:57:28.574Z,38.84
2023-03-29T08:58:33.985Z,38.48
2023-03-29T08:59:38.011Z,36.92
2023-03-29T09:00:51.502Z,36.60
2023-03-29T09:01:57.741Z,37.52
2023-03-29T09:03:03.049Z,38.07
2023-03-29T09:04:17.365Z,39.44
2023-03-29T09:05:28.293Z,38.79
2023-03-29T09:06:31.975Z,38.61
2023-03-29T09:07:35.222Z,37.82
2023-03-29T09:08:41.766Z,37.53
2023-03-29T09:09:45.291Z,37.71
2023-03-29T09:11:12.946Z,37.12
2023-03-29T09:12:24.332Z,37.22
2023-03-29T09:13:46.770Z,39.38
2023-03-29T09:15:08.821Z,38.86
2023-03-29T09:16:30.616Z,38.51
2023-03-29T09:18:24.453Z,39.64
2023-03-29T09:19:43.647Z,39.06
2023-03-29T09:21:08.467Z,38.05
2023-03-29T09:22:29.885Z,39.44
2023-03-29T09:23:53.169Z,38.54
2023-03-29T09:25:06.986Z,35.58
2023-03-29T09:26:20.595Z,35.67
2023-03-29T09:28:00.497Z,35.39
2023-03-29T09:29:50.450Z,36.44
2023-03-29T09:31:08.073Z,36.29
2023-03-29T09:32:27.824Z,36.82
2023-03-29T09:33:52.459Z,37.36
2023-03-29T09:35:20.525Z,37.09
2023-03-29T09:36:42.427Z,39.09
2023-03-29T09:37:48.358Z,37.11
2023-03-29T09:38:54.654Z,36.40
2023-03-29T09:39:58.314Z,36.99
2023-03-29T09:41:34.093Z,36.92
2023-03-29T09:42:40.057Z,37.26
2023-03-29T09:43:45.075Z,39.96
2023-03-29T09:44:52.927Z,39.88
2023-03-29T09:46:01.293Z,39.20
2023-03-29T09:47:09.670Z,38.64
2023-03-29T09:48:15.213Z,39.51
2023-03-29T09:49:31.726Z,37.70
2023-03-29T09:50:41.706Z,37.95
2023-03-29T09:51:49.518Z,38.14
2023-03-29T09:52:53.052Z,36.99
2023-03-29T09:53:57.670Z,36.62
2023-03-29T09:55:03.999Z,36.06
2023-03-29T09:56:08.754Z,36.27
2023-03-29T09:57:17.597Z,35.62
2023-03-29T09:58:24.317Z,35.26
2023-03-29T09:59:27.573Z,36.78
2023-03-29T10:00:31.224Z,37.39
2023-03-29T10:01:40.029Z,36.60
2023-03-29T10:02:50.909Z,38.04
2023-03-29T10:03:54.417Z,36.80
2023-03-29T10:05:01.063Z,36.74
2023-03-29T10:06:06.806Z,38.39
2023-03-29T10:07:19.145Z,38.46
2023-03-29T10:08:37.011Z,37.69
2023-03-29T10:09:45.790Z,36.60
2023-03-29T10:10:48.961Z,36.91
2023-03-29T10:11:55.563Z,37.11
2023-03-29T10:13:10.762Z,36.64
2023-03-29T10:14:18.862Z,36.21
2023-03-29T10:16:42.637Z,35.95
2023-03-29T10:17:46.427Z,35.52
2023-03-29T10:18:50.588Z,35.79
2023-03-29T10:20:01.583Z,36.73
2023-03-29T10:21:07.662Z,36.99
2023-03-29T10:22:24.969Z,39.39
2023-03-29T10:23:34.511Z,39.47
2023-03-29T10:24:37.406Z,38.63
2023-03-29T10:25:43.380Z,38.17
2023-03-29T10:26:47.413Z,37.39
2023-03-29T10:27:50.341Z,37.56
2023-03-29T10:28:55.182Z,37.93
2023-03-29T10:30:08.586Z,35.51
2023-03-29T10:31:19.750Z,35.99
2023-03-29T10:32:23.195Z,36.66
2023-03-29T10:33:32.000Z,36.98
2023-03-29T10:34:35.249Z,36.88
2023-03-29T10:35:42.235Z,36.54
2023-03-29T10:36:57.848Z,36.47
2023-03-29T10:38:05.747Z,35.36
2023-03-29T10:39:13.874Z,35.46
2023-03-29T10:40:28.888Z,36.34
2023-03-29T10:41:35.950Z,36.95
2023-03-29T10:42:50.402Z,37.26
2023-03-29T10:43:54.179Z,37.71
2023-03-29T10:44:59.963Z,37.67
2023-03-29T10:46:11.170Z,36.48
2023-03-29T10:47:20.566Z,38.53
2023-03-29T10:48:30.952Z,39.38
2023-03-29T10:49:41.990Z,39.17
2023-03-29T10:50:51.698Z,37.21
2023-03-29T10:51:54.626Z,36.58
2023-03-29T10:52:57.519Z,36.95
2023-03-29T10:54:01.694Z,41.39
2023-03-29T10:55:05.520Z,41.22
2023-03-29T10:56:37.315Z,39.19
2023-03-29T10:58:22.467Z,40.52
2023-03-29T10:59:30.554Z,40.59
2023-03-29T11:00:55.205Z,40.20
2023-03-29T11:02:39.838Z,38.51
2023-03-29T11:04:08.122Z,36.94
2023-03-29T11:05:52.237Z,36.10
2023-03-29T11:07:31.827Z,38.93
2023-03-29T11:09:02.543Z,38.29
2023-03-29T11:10:14.877Z,36.64
2023-03-29T11:11:33.134Z,37.19
2023-03-29T11:12:47.882Z,35.49
2023-03-29T11:14:19.712Z,36.01
2023-03-29T11:15:41.148Z,35.80
2023-03-29T11:17:05.422Z,35.58
2023-03-29T11:18:45.643Z,36.30
2023-03-29T11:20:03.657Z,36.76
2023-03-29T11:21:40.842Z,37.33
2023-03-29T11:23:01.953Z,39.35
2023-03-29T11:24:40.029Z,38.39
2023-03-29T11:26:05.790Z,37.81
2023-03-29T11:27:30.078Z,38.28
2023-03-29T11:28:45.923Z,38.94
2023-03-29T11:30:00.841Z,38.02
2023-03-29T11:32:05.773Z,36.86
2023-03-29T11:33:33.952Z,35.79
2023-03-29T11:35:01.826Z,37.86
2023-03-29T11:36:17.878Z,39.97
2023-03-29T11:37:27.145Z,38.28
2023-03-29T11:38:40.059Z,38.39
2023-03-29T11:40:30.146Z,37.74
2023-03-29T11:41:41.959Z,38.06
2023-03-29T11:42:48.796Z,36.45
2023-03-29T11:44:13.581Z,36.66
2023-03-29T11:45:26.499Z,36.44
2023-03-29T11:46:34.989Z,37.29
2023-03-29T11:47:41.439Z,37.78
2023-03-29T11:49:23.696Z,37.98
2023-03-29T11:50:43.917Z,36.87
2023-03-29T11:51:54.662Z,37.21
2023-03-29T11:53:07.352Z,37.31
2023-03-29T11:54:34.793Z,38.26
2023-03-29T11:55:40.235Z,39.37
2023-03-29T11:57:12.543Z,40.21
2023-03-29T11:58:35.428Z,39.81
2023-03-29T11:59:48.920Z,36.72
2023-03-29T12:00:58.208Z,38.91
2023-03-29T12:02:22.932Z,37.53
2023-03-29T12:03:41.031Z,36.58
2023-03-29T12:04:50.327Z,40.29
2023-03-29T12:06:04.661Z,39.29
2023-03-29T12:07:15.985Z,37.56
2023-03-29T12:08:32.357Z,37.89
2023-03-29T12:09:51.807Z,39.43
2023-03-29T12:11:28.795Z,37.50
2023-03-29T12:12:43.817Z,38.38
2023-03-29T12:13:54.004Z,37.89
2023-03-29T12:15:07.380Z,37.96
2023-03-29T12:16:28.916Z,37.28
2023-03-29T12:17:47.251Z,35.73
2023-03-29T12:18:54.845Z,36.39
2023-03-29T12:20:12.668Z,37.99
2023-03-29T12:21:22.792Z,37.33
2023-03-29T12:22:26.037Z,38.38
2023-03-29T12:23:33.088Z,38.21
2023-03-29T12:24:42.089Z,39.79
2023-03-29T12:26:02.563Z,38.94
2023-03-29T12:27:23.187Z,39.10
2023-03-29T12:28:37.748Z,38.00
2023-03-29T12:29:48.977Z,36.61
2023-03-29T12:31:18.223Z,36.66
2023-03-29T12:32:36.130Z,37.79
2023-03-29T12:33:53.584Z,36.47
2023-03-29T12:35:15.221Z,35.94
2023-03-29T12:36:45.281Z,36.62
2023-03-29T12:38:26.350Z,36.82
2023-03-29T12:39:31.686Z,37.11
2023-03-29T12:40:46.678Z,37.46
2023-03-29T12:41:52.191Z,37.23
2023-03-29T12:43:04.217Z,37.28
2023-03-29T12:44:10.710Z,38.28
2023-03-29T12:45:21.109Z,39.89
2023-03-29T12:46:27.523Z,39.59
2023-03-29T12:47:43.392Z,40.12
2023-03-29T12:48:51.359Z,40.20
2023-03-29T12:49:59.937Z,41.05
2023-03-29T12:51:08.008Z,40.02
2023-03-29T12:52:23.402Z,40.01
2023-03-29T12:53:46.278Z,40.95
2023-03-29T12:54:58.091Z,40.85
2023-03-29T12:56:01.397Z,40.25
2023-03-29T12:57:38.735Z,40.66
2023-03-29T12:58:52.123Z,40.39
2023-03-29T12:59:55.288Z,40.30
2023-03-29T13:01:07.861Z,39.75
2023-03-29T13:02:14.215Z,40.31
2023-03-29T13:03:42.802Z,38.89
2023-03-29T13:04:55.402Z,37.38
2023-03-29T13:06:05.645Z,37.68
2023-03-29T13:07:28.026Z,39.16
2023-03-29T13:08:46.560Z,39.42
2023-03-29T13:09:59.719Z,38.40
2023-03-29T13:11:04.044Z,39.14
2023-03-29T13:12:16.232Z,39.66
2023-03-29T13:13:26.124Z,38.82
2023-03-29T13:14:34.998Z,38.91
2023-03-29T13:15:38.200Z,38.17
2023-03-29T13:16:42.170Z,37.52
2023-03-29T13:17:45.383Z,38.55
2023-03-29T13:19:10.200Z,39.53
2023-03-29T13:20:43.713Z,40.37
2023-03-29T13:22:11.344Z,39.83
2023-03-29T13:23:52.857Z,39.47
2023-03-29T13:25:19.246Z,40.26
2023-03-29T13:26:46.242Z,41.32
2023-03-29T13:28:01.731Z,39.69
2023-03-29T13:29:13.941Z,39.30
2023-03-29T13:30:23.064Z,39.97
2023-03-29T13:31:32.083Z,40.38
2023-03-29T13:32:47.384Z,40.38
2023-03-29T13:33:59.129Z,40.04
2023-03-29T13:35:12.825Z,40.02
2023-03-29T13:36:39.475Z,39.96
2023-03-29T13:37:57.704Z,40.21
2023-03-29T13:39:07.306Z,41.43
2023-03-29T13:40:47.985Z,41.07
2023-03-29T13:42:06.311Z,41.02
2023-03-29T13:43:21.013Z,41.77
2023-03-29T13:44:28.165Z,41.68
2023-03-29T13:45:32.868Z,42.02
2023-03-29T13:46:44.253Z,42.10
2023-03-29T13:47:58.695Z,42.20
2023-03-29T13:49:18.434Z,41.66
2023-03-29T13:50:35.916Z,42.02
2023-03-29T13:51:49.018Z,41.84
2023-03-29T13:53:04.343Z,41.92
2023-03-29T13:54:36.852Z,41.91
2023-03-29T13:55:59.560Z,41.87
2023-03-29T13:57:11.558Z,42.11
2023-03-29T13:58:53.199Z,42.58
2023-03-29T14:00:18.295Z,43.01
2023-03-29T14:01:50.883Z,42.91
2023-03-29T14:03:01.739Z,42.63
2023-03-29T14:04:08.587Z,43.06
2023-03-29T14:05:18.616Z,43.18
2023-03-29T14:06:33.617Z,43.15
2023-03-29T14:07:41.800Z,42.41
2023-03-29T14:08:45.909Z,42.24
2023-03-29T14:09:51.449Z,42.34
2023-03-29T14:10:55.231Z,42.30
2023-03-29T14:12:02.629Z,42.37
2023-03-29T14:13:05.637Z,42.74
2023-03-29T14:14:11.633Z,43.01
2023-03-29T14:15:25.438Z,43.21
2023-03-29T14:16:35.674Z,43.26
2023-03-29T14:17:39.473Z,42.36
2023-03-29T14:18:45.077Z,42.22
2023-03-29T14:19:49.288Z,42.91
2023-03-29T14:20:55.403Z,41.88
2023-03-29T14:22:03.213Z,41.59
2023-03-29T14:23:17.542Z,42.00
2023-03-29T14:24:23.468Z,42.59
2023-03-29T14:25:27.578Z,42.66
2023-03-29T14:26:36.119Z,42.67
2023-03-29T14:27:41.289Z,42.51
2023-03-29T14:28:47.952Z,42.42
2023-03-29T14:29:52.633Z,41.70
2023-03-29T14:30:56.989Z,42.31
2023-03-29T14:32:18.893Z,43.00
2023-03-29T14:33:34.750Z,42.82
2023-03-29T14:34:38.840Z,42.06
2023-03-29T14:35:42.154Z,41.12
2023-03-29T14:36:49.423Z,40.27
2023-03-29T14:37:52.624Z,40.64
2023-03-29T14:39:21.141Z,40.43
2023-03-29T14:40:24.748Z,40.44
2023-03-29T14:41:32.748Z,41.52
2023-03-29T14:42:38.742Z,41.76
2023-03-29T14:43:42.392Z,41.58
2023-03-29T14:44:45.534Z,41.72
2023-03-29T14:45:49.918Z,41.91
2023-03-29T14:46:53.933Z,42.33
2023-03-29T14:47:58.271Z,42.51
2023-03-29T14:49:02.936Z,42.36
2023-03-29T14:50:07.431Z,42.38